sensor_id;sensor_type;location;lat;lon;timestamp;P1;durP1;ratioP1;P2;durP2;ratioP2
46751;SDS011;32497;48.936;9.270;2023-05-07T00:03:03;2.55;;;1.70;;
46751;SDS011;32497;48.936;9.270;2023-05-07T00:08:04;2.47;;;1.88;;
46751;SDS011;32497;48.936;9.270;2023-05-07T00:13:07;2.33;;;1.80;;
46751;SDS011;32497;48.936;9.270;2023-05-07T00:18:08;2.33;;;1.60;;
46751;SDS011;32497;48.936;9.270;2023-05-07T00:23:09;2.97;;;1.88;;
46751;SDS011;32497;48.936;9.270;2023-05-07T00:28:11;3.72;;;1.85;;
46751;SDS011;32497;48.936;9.270;2023-05-07T00:33:12;2.17;;;1.70;;
46751;SDS011;32497;48.936;9.270;2023-05-07T00:38:14;2.40;;;1.60;;
46751;SDS011;32497;48.936;9.270;2023-05-07T00:43:16;2.58;;;1.80;;
46751;SDS011;32497;48.936;9.270;2023-05-07T00:48:17;2.78;;;1.80;;
46751;SDS011;32497;48.936;9.270;2023-05-07T00:53:19;2.38;;;1.63;;
46751;SDS011;32497;48.936;9.270;2023-05-07T00:58:22;2.70;;;1.92;;
46751;SDS011;32497;48.936;9.270;2023-05-07T01:03:24;3.58;;;1.92;;
46751;SDS011;32497;48.936;9.270;2023-05-07T01:08:25;2.30;;;2.00;;
46751;SDS011;32497;48.936;9.270;2023-05-07T01:13:29;2.67;;;2.00;;
46751;SDS011;32497;48.936;9.270;2023-05-07T01:18:31;3.53;;;1.60;;
46751;SDS011;32497;48.936;9.270;2023-05-07T01:23:34;1.95;;;1.70;;
46751;SDS011;32497;48.936;9.270;2023-05-07T01:28:36;2.30;;;1.80;;
46751;SDS011;32497;48.936;9.270;2023-05-07T01:33:37;3.33;;;1.90;;
46751;SDS011;32497;48.936;9.270;2023-05-07T01:38:42;3.03;;;2.10;;
46751;SDS011;32497;48.936;9.270;2023-05-07T01:43:44;2.73;;;1.70;;
46751;SDS011;32497;48.936;9.270;2023-05-07T01:48:47;2.33;;;1.80;;
46751;SDS011;32497;48.936;9.270;2023-05-07T01:53:51;2.47;;;1.60;;
46751;SDS011;32497;48.936;9.270;2023-05-07T01:58:54;3.03;;;1.83;;
46751;SDS011;32497;48.936;9.270;2023-05-07T02:03:55;2.70;;;1.83;;
46751;SDS011;32497;48.936;9.270;2023-05-07T02:09:01;3.13;;;1.70;;
46751;SDS011;32497;48.936;9.270;2023-05-07T02:14:02;2.95;;;1.80;;
46751;SDS011;32497;48.936;9.270;2023-05-07T02:19:03;2.83;;;1.70;;
46751;SDS011;32497;48.936;9.270;2023-05-07T02:24:06;2.73;;;1.70;;
46751;SDS011;32497;48.936;9.270;2023-05-07T02:29:08;2.63;;;1.87;;
46751;SDS011;32497;48.936;9.270;2023-05-07T02:34:10;2.70;;;1.60;;
46751;SDS011;32497;48.936;9.270;2023-05-07T02:39:12;2.60;;;1.70;;
46751;SDS011;32497;48.936;9.270;2023-05-07T02:44:14;2.93;;;1.70;;
46751;SDS011;32497;48.936;9.270;2023-05-07T02:49:15;2.45;;;1.50;;
46751;SDS011;32497;48.936;9.270;2023-05-07T02:54:18;4.38;;;1.65;;
46751;SDS011;32497;48.936;9.270;2023-05-07T02:59:19;3.03;;;2.13;;
46751;SDS011;32497;48.936;9.270;2023-05-07T03:04:20;3.50;;;1.70;;
46751;SDS011;32497;48.936;9.270;2023-05-07T03:09:23;3.93;;;1.93;;
46751;SDS011;32497;48.936;9.270;2023-05-07T03:14:24;4.37;;;1.87;;
46751;SDS011;32497;48.936;9.270;2023-05-07T03:19:25;7.63;;;2.00;;
46751;SDS011;32497;48.936;9.270;2023-05-07T03:24:28;3.23;;;2.20;;
46751;SDS011;32497;48.936;9.270;2023-05-07T03:29:29;2.40;;;1.70;;
46751;SDS011;32497;48.936;9.270;2023-05-07T03:34:30;2.67;;;2.00;;
46751;SDS011;32497;48.936;9.270;2023-05-07T03:39:32;3.57;;;2.00;;
46751;SDS011;32497;48.936;9.270;2023-05-07T03:44:34;2.53;;;1.90;;
46751;SDS011;32497;48.936;9.270;2023-05-07T03:49:36;3.10;;;2.07;;
46751;SDS011;32497;48.936;9.270;2023-05-07T03:54:38;2.50;;;2.00;;
46751;SDS011;32497;48.936;9.270;2023-05-07T03:59:40;4.23;;;2.03;;
46751;SDS011;32497;48.936;9.270;2023-05-07T04:04:42;3.73;;;2.47;;
46751;SDS011;32497;48.936;9.270;2023-05-07T04:09:45;2.70;;;1.80;;
46751;SDS011;32497;48.936;9.270;2023-05-07T04:14:46;2.47;;;1.93;;
46751;SDS011;32497;48.936;9.270;2023-05-07T04:19:47;2.23;;;1.60;;
46751;SDS011;32497;48.936;9.270;2023-05-07T04:24:51;3.10;;;1.73;;
46751;SDS011;32497;48.936;9.270;2023-05-07T04:29:52;2.87;;;2.00;;
46751;SDS011;32497;48.936;9.270;2023-05-07T04:34:54;4.37;;;2.03;;
46751;SDS011;32497;48.936;9.270;2023-05-07T04:39:56;3.37;;;2.17;;
46751;SDS011;32497;48.936;9.270;2023-05-07T04:44:58;2.40;;;1.77;;
46751;SDS011;32497;48.936;9.270;2023-05-07T04:50:00;2.07;;;1.80;;
46751;SDS011;32497;48.936;9.270;2023-05-07T04:55:03;3.10;;;2.10;;
46751;SDS011;32497;48.936;9.270;2023-05-07T05:00:09;2.03;;;1.65;;
46751;SDS011;32497;48.936;9.270;2023-05-07T05:05:13;2.40;;;1.70;;
46751;SDS011;32497;48.936;9.270;2023-05-07T05:10:16;4.32;;;2.35;;
46751;SDS011;32497;48.936;9.270;2023-05-07T05:15:18;3.20;;;1.80;;
46751;SDS011;32497;48.936;9.270;2023-05-07T05:20:19;3.25;;;2.00;;
46751;SDS011;32497;48.936;9.270;2023-05-07T05:25:24;2.20;;;1.80;;
46751;SDS011;32497;48.936;9.270;2023-05-07T05:30:25;2.90;;;2.00;;
46751;SDS011;32497;48.936;9.270;2023-05-07T05:35:26;2.92;;;2.05;;
46751;SDS011;32497;48.936;9.270;2023-05-07T05:40:29;3.97;;;2.22;;
46751;SDS011;32497;48.936;9.270;2023-05-07T05:45:31;5.25;;;2.00;;
46751;SDS011;32497;48.936;9.270;2023-05-07T05:50:32;2.90;;;2.20;;
46751;SDS011;32497;48.936;9.270;2023-05-07T05:55:34;2.08;;;1.70;;
46751;SDS011;32497;48.936;9.270;2023-05-07T06:00:36;3.53;;;2.13;;
46751;SDS011;32497;48.936;9.270;2023-05-07T06:05:39;2.53;;;2.05;;
46751;SDS011;32497;48.936;9.270;2023-05-07T06:10:42;3.40;;;2.20;;
46751;SDS011;32497;48.936;9.270;2023-05-07T06:15:43;3.40;;;2.25;;
46751;SDS011;32497;48.936;9.270;2023-05-07T06:20:46;2.70;;;1.95;;
46751;SDS011;32497;48.936;9.270;2023-05-07T06:25:58;2.42;;;1.98;;
46751;SDS011;32497;48.936;9.270;2023-05-07T06:31:11;4.75;;;1.95;;
46751;SDS011;32497;48.936;9.270;2023-05-07T06:36:14;5.90;;;1.98;;
46751;SDS011;32497;48.936;9.270;2023-05-07T06:41:16;2.78;;;1.83;;
46751;SDS011;32497;48.936;9.270;2023-05-07T06:46:18;2.90;;;1.65;;
46751;SDS011;32497;48.936;9.270;2023-05-07T06:51:19;1.95;;;1.48;;
46751;SDS011;32497;48.936;9.270;2023-05-07T06:56:22;1.90;;;1.30;;
46751;SDS011;32497;48.936;9.270;2023-05-07T07:01:24;2.20;;;1.45;;
46751;SDS011;32497;48.936;9.270;2023-05-07T07:06:25;1.73;;;1.35;;
46751;SDS011;32497;48.936;9.270;2023-05-07T07:11:28;1.98;;;1.20;;
46751;SDS011;32497;48.936;9.270;2023-05-07T07:16:29;1.92;;;1.40;;
46751;SDS011;32497;48.936;9.270;2023-05-07T07:21:31;1.95;;;1.13;;
46751;SDS011;32497;48.936;9.270;2023-05-07T07:26:34;2.20;;;1.35;;
46751;SDS011;32497;48.936;9.270;2023-05-07T07:31:35;2.42;;;1.30;;
46751;SDS011;32497;48.936;9.270;2023-05-07T07:36:36;1.67;;;1.50;;
46751;SDS011;32497;48.936;9.270;2023-05-07T07:41:38;2.97;;;1.70;;
46751;SDS011;32497;48.936;9.270;2023-05-07T07:46:40;2.92;;;1.48;;
46751;SDS011;32497;48.936;9.270;2023-05-07T07:51:41;1.65;;;1.23;;
46751;SDS011;32497;48.936;9.270;2023-05-07T07:56:46;1.67;;;1.42;;
46751;SDS011;32497;48.936;9.270;2023-05-07T08:01:48;2.60;;;1.63;;
46751;SDS011;32497;48.936;9.270;2023-05-07T08:06:50;2.10;;;1.48;;
46751;SDS011;32497;48.936;9.270;2023-05-07T08:11:53;1.80;;;1.17;;
46751;SDS011;32497;48.936;9.270;2023-05-07T08:16:54;3.10;;;1.13;;
46751;SDS011;32497;48.936;9.270;2023-05-07T08:21:56;3.58;;;1.35;;
46751;SDS011;32497;48.936;9.270;2023-05-07T08:27:00;1.77;;;1.10;;
46751;SDS011;32497;48.936;9.270;2023-05-07T08:32:02;1.20;;;1.00;;
46751;SDS011;32497;48.936;9.270;2023-05-07T08:37:03;2.15;;;1.38;;
46751;SDS011;32497;48.936;9.270;2023-05-07T08:42:06;1.83;;;1.33;;
46751;SDS011;32497;48.936;9.270;2023-05-07T08:47:09;1.33;;;1.02;;
46751;SDS011;32497;48.936;9.270;2023-05-07T08:52:11;2.25;;;1.60;;
46751;SDS011;32497;48.936;9.270;2023-05-07T08:57:14;1.80;;;1.38;;
46751;SDS011;32497;48.936;9.270;2023-05-07T09:02:15;3.30;;;1.67;;
46751;SDS011;32497;48.936;9.270;2023-05-07T09:07:17;1.55;;;1.40;;
46751;SDS011;32497;48.936;9.270;2023-05-07T09:12:21;1.80;;;1.40;;
46751;SDS011;32497;48.936;9.270;2023-05-07T09:17:22;2.28;;;1.63;;
46751;SDS011;32497;48.936;9.270;2023-05-07T09:22:23;3.47;;;1.40;;
46751;SDS011;32497;48.936;9.270;2023-05-07T09:27:33;4.05;;;1.58;;
46751;SDS011;32497;48.936;9.270;2023-05-07T09:32:34;3.97;;;1.88;;
46751;SDS011;32497;48.936;9.270;2023-05-07T09:37:37;2.70;;;1.80;;
46751;SDS011;32497;48.936;9.270;2023-05-07T09:42:39;1.63;;;1.10;;
46751;SDS011;32497;48.936;9.270;2023-05-07T09:47:41;1.75;;;1.65;;
46751;SDS011;32497;48.936;9.270;2023-05-07T09:52:43;1.90;;;1.70;;
46751;SDS011;32497;48.936;9.270;2023-05-07T09:57:47;2.17;;;1.75;;
46751;SDS011;32497;48.936;9.270;2023-05-07T10:02:52;3.03;;;1.80;;
46751;SDS011;32497;48.936;9.270;2023-05-07T10:08:04;2.58;;;2.00;;
46751;SDS011;32497;48.936;9.270;2023-05-07T10:13:10;2.10;;;1.90;;
46751;SDS011;32497;48.936;9.270;2023-05-07T10:18:14;2.65;;;1.88;;
46751;SDS011;32497;48.936;9.270;2023-05-07T10:23:22;2.85;;;2.28;;
46751;SDS011;32497;48.936;9.270;2023-05-07T10:28:27;2.05;;;1.90;;
46751;SDS011;32497;48.936;9.270;2023-05-07T10:33:31;2.00;;;1.80;;
46751;SDS011;32497;48.936;9.270;2023-05-07T10:38:34;2.55;;;1.70;;
46751;SDS011;32497;48.936;9.270;2023-05-07T10:43:41;3.67;;;2.10;;
46751;SDS011;32497;48.936;9.270;2023-05-07T10:54:18;2.58;;;2.38;;
46751;SDS011;32497;48.936;9.270;2023-05-07T10:59:37;2.95;;;1.90;;
46751;SDS011;32497;48.936;9.270;2023-05-07T11:05:19;2.60;;;1.70;;
46751;SDS011;32497;48.936;9.270;2023-05-07T11:10:23;1.90;;;1.80;;
46751;SDS011;32497;48.936;9.270;2023-05-07T11:15:55;3.88;;;1.40;;
46751;SDS011;32497;48.936;9.270;2023-05-07T11:21:05;2.63;;;2.05;;
46751;SDS011;32497;48.936;9.270;2023-05-07T11:26:29;2.22;;;2.03;;
46751;SDS011;32497;48.936;9.270;2023-05-07T11:31:34;2.00;;;1.60;;
46751;SDS011;32497;48.936;9.270;2023-05-07T11:36:35;2.47;;;1.55;;
46751;SDS011;32497;48.936;9.270;2023-05-07T11:41:41;2.33;;;1.65;;
46751;SDS011;32497;48.936;9.270;2023-05-07T11:46:44;1.67;;;1.35;;
46751;SDS011;32497;48.936;9.270;2023-05-07T11:51:45;3.05;;;1.33;;
46751;SDS011;32497;48.936;9.270;2023-05-07T11:56:46;1.40;;;1.30;;
46751;SDS011;32497;48.936;9.270;2023-05-07T12:01:49;1.40;;;1.30;;
46751;SDS011;32497;48.936;9.270;2023-05-07T12:06:53;1.50;;;1.30;;
46751;SDS011;32497;48.936;9.270;2023-05-07T12:11:54;1.15;;;1.00;;
46751;SDS011;32497;48.936;9.270;2023-05-07T12:16:57;1.73;;;1.40;;
46751;SDS011;32497;48.936;9.270;2023-05-07T12:21:59;1.65;;;1.30;;
46751;SDS011;32497;48.936;9.270;2023-05-07T12:27:01;2.92;;;1.40;;
46751;SDS011;32497;48.936;9.270;2023-05-07T12:32:04;1.50;;;1.30;;
46751;SDS011;32497;48.936;9.270;2023-05-07T12:37:06;1.92;;;1.20;;
46751;SDS011;32497;48.936;9.270;2023-05-07T12:42:07;1.63;;;1.20;;
46751;SDS011;32497;48.936;9.270;2023-05-07T12:47:09;2.20;;;1.67;;
46751;SDS011;32497;48.936;9.270;2023-05-07T12:52:10;3.10;;;1.35;;
46751;SDS011;32497;48.936;9.270;2023-05-07T12:57:12;4.15;;;1.40;;
46751;SDS011;32497;48.936;9.270;2023-05-07T13:02:14;2.15;;;1.30;;
46751;SDS011;32497;48.936;9.270;2023-05-07T13:07:16;1.30;;;1.20;;
46751;SDS011;32497;48.936;9.270;2023-05-07T13:12:17;1.80;;;1.20;;
46751;SDS011;32497;48.936;9.270;2023-05-07T13:17:19;3.60;;;1.33;;
46751;SDS011;32497;48.936;9.270;2023-05-07T13:22:20;2.00;;;1.80;;
46751;SDS011;32497;48.936;9.270;2023-05-07T13:27:22;2.17;;;1.67;;
46751;SDS011;32497;48.936;9.270;2023-05-07T13:32:24;2.47;;;1.80;;
46751;SDS011;32497;48.936;9.270;2023-05-07T13:37:25;2.58;;;1.70;;
46751;SDS011;32497;48.936;9.270;2023-05-07T13:42:26;3.10;;;1.17;;
46751;SDS011;32497;48.936;9.270;2023-05-07T13:47:29;2.55;;;1.10;;
46751;SDS011;32497;48.936;9.270;2023-05-07T13:52:30;1.15;;;0.90;;
46751;SDS011;32497;48.936;9.270;2023-05-07T13:57:31;1.73;;;0.80;;
46751;SDS011;32497;48.936;9.270;2023-05-07T14:02:33;1.83;;;1.30;;
46751;SDS011;32497;48.936;9.270;2023-05-07T14:07:35;1.70;;;0.80;;
46751;SDS011;32497;48.936;9.270;2023-05-07T14:12:36;3.20;;;0.90;;
46751;SDS011;32497;48.936;9.270;2023-05-07T14:17:38;1.60;;;1.00;;
46751;SDS011;32497;48.936;9.270;2023-05-07T14:22:39;1.83;;;1.30;;
46751;SDS011;32497;48.936;9.270;2023-05-07T14:27:41;3.38;;;1.10;;
46751;SDS011;32497;48.936;9.270;2023-05-07T14:32:43;1.02;;;0.80;;
46751;SDS011;32497;48.936;9.270;2023-05-07T14:37:45;2.85;;;0.90;;
46751;SDS011;32497;48.936;9.270;2023-05-07T14:42:46;1.25;;;0.93;;
46751;SDS011;32497;48.936;9.270;2023-05-07T14:47:48;1.50;;;0.98;;
46751;SDS011;32497;48.936;9.270;2023-05-07T14:52:49;1.98;;;1.10;;
46751;SDS011;32497;48.936;9.270;2023-05-07T14:57:50;1.40;;;1.00;;
46751;SDS011;32497;48.936;9.270;2023-05-07T15:02:53;2.25;;;1.10;;
46751;SDS011;32497;48.936;9.270;2023-05-07T15:07:56;2.28;;;0.98;;
46751;SDS011;32497;48.936;9.270;2023-05-07T15:12:57;1.20;;;1.00;;
46751;SDS011;32497;48.936;9.270;2023-05-07T15:18:00;2.75;;;1.35;;
46751;SDS011;32497;48.936;9.270;2023-05-07T15:23:01;3.28;;;1.50;;
46751;SDS011;32497;48.936;9.270;2023-05-07T15:28:02;3.20;;;1.67;;
46751;SDS011;32497;48.936;9.270;2023-05-07T15:33:05;3.78;;;1.60;;
46751;SDS011;32497;48.936;9.270;2023-05-07T15:38:06;2.78;;;1.80;;
46751;SDS011;32497;48.936;9.270;2023-05-07T15:43:07;3.38;;;2.22;;
46751;SDS011;32497;48.936;9.270;2023-05-07T15:48:10;2.40;;;2.10;;
46751;SDS011;32497;48.936;9.270;2023-05-07T15:53:11;3.60;;;2.50;;
46751;SDS011;32497;48.936;9.270;2023-05-07T15:58:12;2.90;;;2.40;;
46751;SDS011;32497;48.936;9.270;2023-05-07T16:03:15;3.42;;;2.38;;
46751;SDS011;32497;48.936;9.270;2023-05-07T16:08:16;3.33;;;1.80;;
46751;SDS011;32497;48.936;9.270;2023-05-07T16:13:17;3.10;;;2.35;;
46751;SDS011;32497;48.936;9.270;2023-05-07T16:18:19;2.90;;;2.05;;
46751;SDS011;32497;48.936;9.270;2023-05-07T16:23:21;5.53;;;2.45;;
46751;SDS011;32497;48.936;9.270;2023-05-07T16:28:22;3.10;;;2.20;;
46751;SDS011;32497;48.936;9.270;2023-05-07T16:33:24;5.00;;;2.72;;
46751;SDS011;32497;48.936;9.270;2023-05-07T16:38:25;3.67;;;2.33;;
46751;SDS011;32497;48.936;9.270;2023-05-07T16:43:26;4.65;;;2.70;;
46751;SDS011;32497;48.936;9.270;2023-05-07T16:48:29;4.07;;;2.53;;
46751;SDS011;32497;48.936;9.270;2023-05-07T16:53:30;3.50;;;2.75;;
46751;SDS011;32497;48.936;9.270;2023-05-07T16:58:31;5.32;;;2.70;;
46751;SDS011;32497;48.936;9.270;2023-05-07T17:03:33;4.13;;;2.53;;
46751;SDS011;32497;48.936;9.270;2023-05-07T17:08:34;4.25;;;3.10;;
46751;SDS011;32497;48.936;9.270;2023-05-07T17:13:37;3.72;;;2.55;;
46751;SDS011;32497;48.936;9.270;2023-05-07T17:18:39;4.75;;;2.78;;
46751;SDS011;32497;48.936;9.270;2023-05-07T17:23:40;4.45;;;2.80;;
46751;SDS011;32497;48.936;9.270;2023-05-07T17:28:41;4.30;;;2.30;;
46751;SDS011;32497;48.936;9.270;2023-05-07T17:33:44;6.35;;;2.47;;
46751;SDS011;32497;48.936;9.270;2023-05-07T17:38:45;3.55;;;2.58;;
46751;SDS011;32497;48.936;9.270;2023-05-07T17:43:46;6.10;;;2.80;;
46751;SDS011;32497;48.936;9.270;2023-05-07T17:48:48;5.68;;;3.35;;
46751;SDS011;32497;48.936;9.270;2023-05-07T17:53:49;3.88;;;2.90;;
46751;SDS011;32497;48.936;9.270;2023-05-07T17:58:51;4.22;;;2.95;;
46751;SDS011;32497;48.936;9.270;2023-05-07T18:03:53;4.38;;;2.90;;
46751;SDS011;32497;48.936;9.270;2023-05-07T18:08:54;4.18;;;2.83;;
46751;SDS011;32497;48.936;9.270;2023-05-07T18:13:55;3.75;;;2.90;;
46751;SDS011;32497;48.936;9.270;2023-05-07T18:18:58;4.68;;;2.60;;
46751;SDS011;32497;48.936;9.270;2023-05-07T18:23:59;3.80;;;3.08;;
46751;SDS011;32497;48.936;9.270;2023-05-07T18:29:00;3.67;;;2.58;;
46751;SDS011;32497;48.936;9.270;2023-05-07T18:34:03;3.60;;;2.80;;
46751;SDS011;32497;48.936;9.270;2023-05-07T18:39:04;4.00;;;2.70;;
46751;SDS011;32497;48.936;9.270;2023-05-07T18:44:05;3.78;;;2.38;;
46751;SDS011;32497;48.936;9.270;2023-05-07T18:49:08;3.25;;;2.65;;
46751;SDS011;32497;48.936;9.270;2023-05-07T18:54:09;4.93;;;2.88;;
46751;SDS011;32497;48.936;9.270;2023-05-07T18:59:10;4.47;;;2.63;;
46751;SDS011;32497;48.936;9.270;2023-05-07T19:04:13;4.72;;;2.75;;
46751;SDS011;32497;48.936;9.270;2023-05-07T19:09:14;3.45;;;2.78;;
46751;SDS011;32497;48.936;9.270;2023-05-07T19:14:15;5.15;;;3.50;;
46751;SDS011;32497;48.936;9.270;2023-05-07T19:19:17;6.82;;;3.20;;
46751;SDS011;32497;48.936;9.270;2023-05-07T19:24:18;5.70;;;3.55;;
46751;SDS011;32497;48.936;9.270;2023-05-07T19:29:19;6.82;;;3.75;;
46751;SDS011;32497;48.936;9.270;2023-05-07T19:34:22;5.20;;;3.95;;
46751;SDS011;32497;48.936;9.270;2023-05-07T19:39:23;5.63;;;3.50;;
46751;SDS011;32497;48.936;9.270;2023-05-07T19:44:24;4.32;;;3.25;;
46751;SDS011;32497;48.936;9.270;2023-05-07T19:49:27;4.15;;;3.03;;
46751;SDS011;32497;48.936;9.270;2023-05-07T19:54:28;3.95;;;3.13;;
46751;SDS011;32497;48.936;9.270;2023-05-07T19:59:29;5.10;;;3.25;;
46751;SDS011;32497;48.936;9.270;2023-05-07T20:04:31;5.07;;;3.65;;
46751;SDS011;32497;48.936;9.270;2023-05-07T20:09:33;4.55;;;3.05;;
46751;SDS011;32497;48.936;9.270;2023-05-07T20:14:34;4.88;;;3.30;;
46751;SDS011;32497;48.936;9.270;2023-05-07T20:19:36;5.05;;;3.80;;
46751;SDS011;32497;48.936;9.270;2023-05-07T20:24:37;5.97;;;4.07;;
46751;SDS011;32497;48.936;9.270;2023-05-07T20:29:39;5.70;;;3.55;;
46751;SDS011;32497;48.936;9.270;2023-05-07T20:34:41;7.15;;;3.80;;
46751;SDS011;32497;48.936;9.270;2023-05-07T20:39:43;6.18;;;4.15;;
46751;SDS011;32497;48.936;9.270;2023-05-07T20:44:44;6.10;;;4.07;;
46751;SDS011;32497;48.936;9.270;2023-05-07T20:49:49;8.50;;;4.18;;
46751;SDS011;32497;48.936;9.270;2023-05-07T20:54:50;4.90;;;3.72;;
46751;SDS011;32497;48.936;9.270;2023-05-07T20:59:51;4.88;;;3.80;;
46751;SDS011;32497;48.936;9.270;2023-05-07T21:04:54;9.75;;;4.60;;
46751;SDS011;32497;48.936;9.270;2023-05-07T21:09:55;6.22;;;4.32;;
46751;SDS011;32497;48.936;9.270;2023-05-07T21:14:56;6.78;;;4.72;;
46751;SDS011;32497;48.936;9.270;2023-05-07T21:19:58;8.18;;;5.47;;
46751;SDS011;32497;48.936;9.270;2023-05-07T21:24:59;5.57;;;4.63;;
46751;SDS011;32497;48.936;9.270;2023-05-07T21:30:01;9.18;;;5.10;;
46751;SDS011;32497;48.936;9.270;2023-05-07T21:35:04;6.63;;;4.80;;
46751;SDS011;32497;48.936;9.270;2023-05-07T21:40:06;7.65;;;5.57;;
46751;SDS011;32497;48.936;9.270;2023-05-07T21:45:08;7.60;;;4.85;;
46751;SDS011;32497;48.936;9.270;2023-05-07T21:50:11;4.18;;;3.50;;
46751;SDS011;32497;48.936;9.270;2023-05-07T21:55:12;4.68;;;3.30;;
46751;SDS011;32497;48.936;9.270;2023-05-07T22:00:14;3.78;;;2.58;;
46751;SDS011;32497;48.936;9.270;2023-05-07T22:05:17;2.83;;;2.30;;
46751;SDS011;32497;48.936;9.270;2023-05-07T22:10:18;4.38;;;2.40;;
46751;SDS011;32497;48.936;9.270;2023-05-07T22:15:19;3.67;;;2.20;;
46751;SDS011;32497;48.936;9.270;2023-05-07T22:20:21;6.25;;;2.53;;
46751;SDS011;32497;48.936;9.270;2023-05-07T22:25:23;2.85;;;2.25;;
46751;SDS011;32497;48.936;9.270;2023-05-07T22:30:24;3.08;;;2.40;;
46751;SDS011;32497;48.936;9.270;2023-05-07T22:35:27;3.22;;;2.17;;
46751;SDS011;32497;48.936;9.270;2023-05-07T22:40:28;2.58;;;2.30;;
46751;SDS011;32497;48.936;9.270;2023-05-07T22:45:32;3.60;;;2.60;;
46751;SDS011;32497;48.936;9.270;2023-05-07T22:50:36;3.25;;;2.28;;
46751;SDS011;32497;48.936;9.270;2023-05-07T22:55:37;2.90;;;2.45;;
46751;SDS011;32497;48.936;9.270;2023-05-07T23:00:38;4.15;;;2.60;;
46751;SDS011;32497;48.936;9.270;2023-05-07T23:05:41;3.58;;;2.80;;
46751;SDS011;32497;48.936;9.270;2023-05-07T23:10:42;4.10;;;2.85;;
46751;SDS011;32497;48.936;9.270;2023-05-07T23:15:43;3.08;;;2.60;;
46751;SDS011;32497;48.936;9.270;2023-05-07T23:20:45;3.05;;;2.42;;
46751;SDS011;32497;48.936;9.270;2023-05-07T23:25:49;5.45;;;2.78;;
46751;SDS011;32497;48.936;9.270;2023-05-07T23:30:50;3.72;;;3.05;;
46751;SDS011;32497;48.936;9.270;2023-05-07T23:35:58;3.83;;;2.85;;
46751;SDS011;32497;48.936;9.270;2023-05-07T23:40:59;4.93;;;3.10;;
46751;SDS011;32497;48.936;9.270;2023-05-07T23:46:00;4.32;;;3.08;;
46751;SDS011;32497;48.936;9.270;2023-05-07T23:51:03;4.18;;;3.00;;
46751;SDS011;32497;48.936;9.270;2023-05-07T23:56:04;4.75;;;3.60;;
